KWDG/WDG METAR and TAF weather

Enter ICAO airport designator
Station Type Date Time Source
KWDG METAR 2020/08/11 18:50 UTC NOAA

KWDG 111850Z 00000KT 10SM SCT050 30/21 A2995


Station Type Date Time Source
KWDG Decoded METAR 2020/08/11 18:50 UTC NOAA

Enid, Enid Woodring Regional Airport, OK, United States (KWDG) 36-22-45N 097-47-28W
Aug 11, 2020 - 02:50 PM EDT / 2020.08.11 1850 UTC
Wind: Calm:0
Visibility: 10 mile(s):0
Sky conditions: partly cloudy
Temperature: 86 F (30 C)
Dew Point: 69 F (21 C)
Relative Humidity: 58%
Pressure (altimeter): 29.95 in. Hg (1014 hPa)
ob: KWDG 111850Z 00000KT 10SM SCT050 30/21 A2995
cycle: 19

Station Type Date Time Source
KWDG TAF UTC NOAA

Error!

Example: see airport list